Estaciones Metar próximas

 

LELL - Sabadell, Spain
Distancia a la estación: E 18km
Actualizado: 18/02/2018 21:00
Despejado
Despejado
 Viento del calm
Viento: Calma
Temperatura: 11°C
Rocío: 8°C
Humedad: 82%
Barómetro: 1019 hPa
Resumen: Despejado
Visibilidad: greater than 10 km
2018/02/18 20:00 LELL 182000Z AUTO 00000KT CAVOK 11/08 Q1019
LEBL - Barcelona Airpor, Spain
Distancia a la estación: SSE 33km
Actualizado: 18/02/2018 21:00
Despejado
Despejado
 Viento del varies
Viento: varies 4 km/h
Temperatura: 12°C
Rocío: 6°C
Humedad: 67%
Barómetro: 1019 hPa
Resumen: Despejado
Visibilidad: greater than 10 km
2018/02/18 20:00 LEBL 182000Z VRB02KT CAVOK 12/06 Q1019 NOSIG
LERS - Reus (civ/Mil), Spain
Distancia a la estación: SO 75km
Actualizado: 18/02/2018 21:00
Despejado
Despejado
 Viento del varies
Viento: varies 2 km/h
Temperatura: 12°C
Rocío: 3°C
Humedad: 54%
Barómetro: 1019 hPa
Resumen: Despejado
Visibilidad: greater than 10 km
2018/02/18 20:00 LERS 182000Z VRB01KT CAVOK 12/03 Q1019
 
LEGE - Gerona/Costa Bra, Spain
Distancia a la estación: ENE 83km
Actualizado: 18/02/2018 21:00
Parcialmente nuboso
Parcialmente nuboso
 Viento del SSO
Viento: SSO 2 km/h
Temperatura: 9°C
Rocío: 8°C
Humedad: 94%
Barómetro: 1019 hPa
Nubes: Parcialmente nuboso
Visibilidad: 10 km
Detalle Nubes: Nubes dispersas 1372 m
Parcialmente nuboso 2743 m
2018/02/18 20:00 LEGE 182000Z 20001KT 9999 FEW045 SCT090 09/08 Q1019
LFMP - Perpignan/Rivesa, France
Distancia a la estación: NNE 155km
Actualizado: 18/02/2018 21:00
Muy nuboso
Muy nuboso
 Viento del NO
Viento: NO 15 km/h
Temperatura: 10°C
Sensación Térmica: 8°C
Rocío: 3°C
Humedad: 62%
Barómetro: 1020 hPa
Nubes: Muy nuboso
Visibilidad: 10 km
Detalle Nubes: Nubes dispersas 1524 m
Muy nuboso 3353 m
Muy nuboso 5486 m
2018/02/18 20:00 LFMP 182000Z AUTO 31008KT 290V350 9999 FEW050 BKN110 BKN180 10/03 Q1020 NOSIG
LFMK - Carcassonne/Salv, France
Distancia a la estación: N 191km
Actualizado: 18/02/2018 21:00
Cubierto
Cubierto
 Viento del O
Viento: O 11 km/h
Temperatura: 7°C
Sensación Térmica: 5°C
Rocío: 4°C
Humedad: 81%
Barómetro: 1021 hPa
Nubes: Cubierto
Visibilidad: 10 km
Detalle Nubes: Cubierto 732 m
2018/02/18 20:00 LFMK 182000Z AUTO 27006KT 9999 OVC024 07/04 Q1021
 
LEHC - Huesca-Pirineos, Spain
Distancia a la estación: ONO 193km
Actualizado: 18/02/2018 21:00
Despejado
Despejado
 Viento del O
Viento: O 20 km/h
Temperatura: 9°C
Sensación Térmica: 6°C
Rocío: 3°C
Humedad: 66%
Barómetro: 1018 hPa
Resumen: Despejado
Visibilidad: greater than 10 km
2018/02/18 20:00 LEHC 182000Z AUTO 28011KT 250V310 CAVOK 09/03 Q1018
LFMU - Beziers/Vias, France
Distancia a la estación: NNE 232km
Actualizado: 18/02/2018 21:00
Despejado
Despejado
 Viento del O
Viento: O 17 km/h
Temperatura: 7°C
Sensación Térmica: 4°C
Rocío: 3°C
Humedad: 76%
Barómetro: 1019 hPa
Resumen: Despejado
Visibilidad: greater than 10 km
2018/02/18 20:00 LFMU 182000Z AUTO 28009KT CAVOK 07/03 Q1019
LEPA - Palma De Mallorc, Spain
Distancia a la estación: SSE 233km
Actualizado: 18/02/2018 21:00
Nubes dispersas
Nubes dispersas
 Viento del varies
Viento: varies 4 km/h
Temperatura: 10°C
Rocío: 6°C
Humedad: 76%
Barómetro: 1019 hPa
Nubes: Nubes dispersas
Visibilidad: 10 km
Detalle Nubes: Nubes dispersas 792 m
2018/02/18 20:00 LEPA 182000Z VRB02KT 9999 FEW026 10/06 Q1019 NOSIG
 
LFBO - Toulouse/Blagnac, France
Distancia a la estación: N 236km
Actualizado: 18/02/2018 21:00
Lluvia débil, Drizzle, Mist, Cubierto
Lluvia débil, Drizzle, Mist, Cubierto
 Viento del E
Viento: E 6 km/h
Temperatura: 7°C
Rocío: 6°C
Humedad: 93%
Barómetro: 1021 hPa
Resumen: Lluvia débil, Drizzle, Mist
Nubes: Cubierto
Visibilidad: 3 km
Detalle Nubes: Muy nuboso 91 m
Cubierto 244 m
2018/02/18 20:00 LFBO 182000Z AUTO 09003KT 3100 -RADZ BR BKN003 OVC008 07/06 Q1021 NOSIG
LFBT - Tarbes/Ossun, France
Distancia a la estación: NO 239km
Actualizado: 18/02/2018 21:00
Lluvia débil, Tormenta
Lluvia débil, Tormenta
 Viento del OSO
Viento: OSO 17 km/h
Temperatura: 8°C
Sensación Térmica: 5°C
Rocío: 7°C
Humedad: 93%
Barómetro: 1021 hPa
Resumen: Lluvia débil
Nubes: Tormenta
Visibilidad: 6 km
Detalle Nubes: Nubes dispersas 335 m
Muy nuboso 579 m
Muy nuboso 792 m
2018/02/18 20:00 LFBT 182000Z AUTO 24009KT 6000 -RA FEW011/// BKN019/// BKN026/// ///TCU 08/07 Q1021 TEMPO 3000 RA BKN009
LEZG - Zaragoza (mil/Ci, Spain
Distancia a la estación: O 242km
Actualizado: 18/02/2018 21:00
Muy nuboso
Muy nuboso
 Viento del ONO
Viento: ONO 28 km/h
Temperatura: 11°C
Rocío: 6°C
Humedad: 72%
Barómetro: 1021 hPa
Nubes: Muy nuboso
Visibilidad: 10 km
Detalle Nubes: Nubes dispersas 1067 m
Muy nuboso 2591 m
2018/02/18 20:00 LEZG 182000Z 29015KT 9999 FEW035 BKN085 11/06 Q1021